sensor_id;sensor_type;location;lat;lon;timestamp;P1;durP1;ratioP1;P2;durP2;ratioP2
27642;SDS011;15053;48.618;10.024;2023-03-29T00:00:48;5.13;;;2.83;;
27642;SDS011;15053;48.618;10.024;2023-03-29T00:03:15;4.95;;;3.17;;
27642;SDS011;15053;48.618;10.024;2023-03-29T00:05:42;3.45;;;2.60;;
27642;SDS011;15053;48.618;10.024;2023-03-29T00:08:09;4.45;;;2.75;;
27642;SDS011;15053;48.618;10.024;2023-03-29T00:10:39;6.88;;;3.45;;
27642;SDS011;15053;48.618;10.024;2023-03-29T00:13:07;6.35;;;3.22;;
27642;SDS011;15053;48.618;10.024;2023-03-29T00:15:33;4.55;;;3.22;;
27642;SDS011;15053;48.618;10.024;2023-03-29T00:18:00;5.05;;;2.70;;
27642;SDS011;15053;48.618;10.024;2023-03-29T00:20:27;4.28;;;3.08;;
27642;SDS011;15053;48.618;10.024;2023-03-29T00:22:54;5.32;;;2.95;;
27642;SDS011;15053;48.618;10.024;2023-03-29T00:25:20;5.32;;;2.70;;
27642;SDS011;15053;48.618;10.024;2023-03-29T00:27:47;4.70;;;3.20;;
27642;SDS011;15053;48.618;10.024;2023-03-29T00:30:14;4.72;;;3.28;;
27642;SDS011;15053;48.618;10.024;2023-03-29T00:32:42;4.25;;;2.70;;
27642;SDS011;15053;48.618;10.024;2023-03-29T00:35:09;8.20;;;3.00;;
27642;SDS011;15053;48.618;10.024;2023-03-29T00:37:37;5.43;;;2.85;;
27642;SDS011;15053;48.618;10.024;2023-03-29T00:40:04;6.15;;;3.15;;
27642;SDS011;15053;48.618;10.024;2023-03-29T00:42:34;4.53;;;3.22;;
27642;SDS011;15053;48.618;10.024;2023-03-29T00:45:05;4.53;;;2.78;;
27642;SDS011;15053;48.618;10.024;2023-03-29T00:47:45;4.07;;;2.90;;
27642;SDS011;15053;48.618;10.024;2023-03-29T00:50:17;6.22;;;3.13;;
27642;SDS011;15053;48.618;10.024;2023-03-29T00:52:53;4.72;;;2.80;;
27642;SDS011;15053;48.618;10.024;2023-03-29T00:55:25;7.10;;;2.95;;
27642;SDS011;15053;48.618;10.024;2023-03-29T00:57:54;5.05;;;3.42;;
27642;SDS011;15053;48.618;10.024;2023-03-29T01:00:25;6.75;;;3.13;;
27642;SDS011;15053;48.618;10.024;2023-03-29T01:02:57;4.97;;;3.17;;
27642;SDS011;15053;48.618;10.024;2023-03-29T01:05:28;4.50;;;3.10;;
27642;SDS011;15053;48.618;10.024;2023-03-29T01:08:04;9.05;;;3.08;;
27642;SDS011;15053;48.618;10.024;2023-03-29T01:10:38;6.10;;;3.60;;
27642;SDS011;15053;48.618;10.024;2023-03-29T01:13:10;4.60;;;2.90;;
27642;SDS011;15053;48.618;10.024;2023-03-29T01:15:41;4.30;;;2.90;;
27642;SDS011;15053;48.618;10.024;2023-03-29T01:18:11;4.78;;;3.17;;
27642;SDS011;15053;48.618;10.024;2023-03-29T01:20:41;5.70;;;3.08;;
27642;SDS011;15053;48.618;10.024;2023-03-29T01:29:27;3.83;;;2.83;;
27642;SDS011;15053;48.618;10.024;2023-03-29T01:37:35;5.10;;;3.17;;
27642;SDS011;15053;48.618;10.024;2023-03-29T01:40:07;4.95;;;3.00;;
27642;SDS011;15053;48.618;10.024;2023-03-29T01:46:31;4.95;;;3.30;;
27642;SDS011;15053;48.618;10.024;2023-03-29T01:51:28;7.20;;;3.13;;
27642;SDS011;15053;48.618;10.024;2023-03-29T01:56:54;6.03;;;3.15;;
27642;SDS011;15053;48.618;10.024;2023-03-29T01:59:26;5.97;;;3.42;;
27642;SDS011;15053;48.618;10.024;2023-03-29T02:01:58;7.50;;;3.40;;
27642;SDS011;15053;48.618;10.024;2023-03-29T02:04:29;6.28;;;3.63;;
27642;SDS011;15053;48.618;10.024;2023-03-29T02:07:00;6.60;;;3.75;;
27642;SDS011;15053;48.618;10.024;2023-03-29T02:09:29;9.25;;;4.45;;
27642;SDS011;15053;48.618;10.024;2023-03-29T02:12:02;5.60;;;3.60;;
27642;SDS011;15053;48.618;10.024;2023-03-29T02:14:31;7.70;;;3.72;;
27642;SDS011;15053;48.618;10.024;2023-03-29T02:17:10;8.60;;;4.20;;
27642;SDS011;15053;48.618;10.024;2023-03-29T02:22:42;9.45;;;5.15;;
27642;SDS011;15053;48.618;10.024;2023-03-29T02:25:13;7.72;;;4.60;;
27642;SDS011;15053;48.618;10.024;2023-03-29T02:27:41;5.82;;;4.32;;
27642;SDS011;15053;48.618;10.024;2023-03-29T02:30:09;9.48;;;5.13;;
27642;SDS011;15053;48.618;10.024;2023-03-29T02:32:40;7.88;;;4.60;;
27642;SDS011;15053;48.618;10.024;2023-03-29T02:35:30;7.28;;;4.50;;
27642;SDS011;15053;48.618;10.024;2023-03-29T02:38:00;12.27;;;5.65;;
27642;SDS011;15053;48.618;10.024;2023-03-29T02:40:29;8.13;;;4.90;;
27642;SDS011;15053;48.618;10.024;2023-03-29T02:42:57;8.57;;;5.25;;
27642;SDS011;15053;48.618;10.024;2023-03-29T02:45:28;9.70;;;5.93;;
27642;SDS011;15053;48.618;10.024;2023-03-29T02:47:56;10.85;;;5.93;;
27642;SDS011;15053;48.618;10.024;2023-03-29T02:50:27;10.73;;;6.13;;
27642;SDS011;15053;48.618;10.024;2023-03-29T02:53:00;10.98;;;6.18;;
27642;SDS011;15053;48.618;10.024;2023-03-29T02:55:33;12.73;;;6.47;;
27642;SDS011;15053;48.618;10.024;2023-03-29T02:58:01;13.25;;;6.75;;
27642;SDS011;15053;48.618;10.024;2023-03-29T03:00:34;10.45;;;6.55;;
27642;SDS011;15053;48.618;10.024;2023-03-29T03:03:05;16.60;;;7.25;;
27642;SDS011;15053;48.618;10.024;2023-03-29T03:05:33;10.27;;;6.85;;
27642;SDS011;15053;48.618;10.024;2023-03-29T03:07:59;10.48;;;6.93;;
27642;SDS011;15053;48.618;10.024;2023-03-29T03:10:26;9.73;;;6.88;;
27642;SDS011;15053;48.618;10.024;2023-03-29T03:12:53;11.25;;;7.63;;
27642;SDS011;15053;48.618;10.024;2023-03-29T03:15:19;12.27;;;7.07;;
27642;SDS011;15053;48.618;10.024;2023-03-29T03:17:46;8.93;;;6.38;;
27642;SDS011;15053;48.618;10.024;2023-03-29T03:20:15;13.52;;;6.78;;
27642;SDS011;15053;48.618;10.024;2023-03-29T03:22:43;12.48;;;6.97;;
27642;SDS011;15053;48.618;10.024;2023-03-29T03:25:18;12.95;;;7.43;;
27642;SDS011;15053;48.618;10.024;2023-03-29T03:27:47;11.88;;;6.93;;
27642;SDS011;15053;48.618;10.024;2023-03-29T03:30:17;9.55;;;6.65;;
27642;SDS011;15053;48.618;10.024;2023-03-29T03:36:03;8.63;;;5.85;;
27642;SDS011;15053;48.618;10.024;2023-03-29T03:38:33;10.63;;;7.03;;
27642;SDS011;15053;48.618;10.024;2023-03-29T03:41:02;14.02;;;6.85;;
27642;SDS011;15053;48.618;10.024;2023-03-29T03:43:32;13.27;;;7.80;;
27642;SDS011;15053;48.618;10.024;2023-03-29T03:45:59;10.43;;;6.45;;
27642;SDS011;15053;48.618;10.024;2023-03-29T03:48:28;10.35;;;5.85;;
27642;SDS011;15053;48.618;10.024;2023-03-29T03:51:02;13.43;;;7.40;;
27642;SDS011;15053;48.618;10.024;2023-03-29T03:53:32;10.93;;;6.93;;
27642;SDS011;15053;48.618;10.024;2023-03-29T03:56:11;13.02;;;7.53;;
27642;SDS011;15053;48.618;10.024;2023-03-29T03:59:01;11.35;;;7.28;;
27642;SDS011;15053;48.618;10.024;2023-03-29T04:01:32;14.07;;;7.30;;
27642;SDS011;15053;48.618;10.024;2023-03-29T04:04:10;11.02;;;7.18;;
27642;SDS011;15053;48.618;10.024;2023-03-29T04:06:40;15.70;;;8.23;;
27642;SDS011;15053;48.618;10.024;2023-03-29T04:09:31;14.23;;;7.40;;
27642;SDS011;15053;48.618;10.024;2023-03-29T04:12:17;12.30;;;7.35;;
27642;SDS011;15053;48.618;10.024;2023-03-29T04:14:44;14.15;;;7.88;;
27642;SDS011;15053;48.618;10.024;2023-03-29T04:17:19;12.20;;;7.10;;
27642;SDS011;15053;48.618;10.024;2023-03-29T04:19:54;13.75;;;6.53;;
27642;SDS011;15053;48.618;10.024;2023-03-29T04:22:24;9.52;;;6.05;;
27642;SDS011;15053;48.618;10.024;2023-03-29T04:24:51;10.55;;;6.20;;
27642;SDS011;15053;48.618;10.024;2023-03-29T04:27:36;10.75;;;6.00;;
27642;SDS011;15053;48.618;10.024;2023-03-29T04:30:10;12.10;;;6.28;;
27642;SDS011;15053;48.618;10.024;2023-03-29T04:33:07;7.05;;;4.90;;
27642;SDS011;15053;48.618;10.024;2023-03-29T04:35:35;12.50;;;6.18;;
27642;SDS011;15053;48.618;10.024;2023-03-29T04:38:01;9.13;;;5.00;;
27642;SDS011;15053;48.618;10.024;2023-03-29T04:40:29;9.73;;;4.85;;
27642;SDS011;15053;48.618;10.024;2023-03-29T04:43:10;8.60;;;4.68;;
27642;SDS011;15053;48.618;10.024;2023-03-29T04:45:45;8.20;;;4.07;;
27642;SDS011;15053;48.618;10.024;2023-03-29T04:48:23;7.75;;;4.18;;
27642;SDS011;15053;48.618;10.024;2023-03-29T04:50:49;7.40;;;4.57;;
27642;SDS011;15053;48.618;10.024;2023-03-29T04:53:18;7.32;;;4.40;;
27642;SDS011;15053;48.618;10.024;2023-03-29T04:55:47;7.80;;;3.95;;
27642;SDS011;15053;48.618;10.024;2023-03-29T04:58:22;12.45;;;6.28;;
27642;SDS011;15053;48.618;10.024;2023-03-29T05:00:54;8.10;;;4.07;;
27642;SDS011;15053;48.618;10.024;2023-03-29T05:03:30;6.00;;;3.25;;
27642;SDS011;15053;48.618;10.024;2023-03-29T05:06:08;6.68;;;4.00;;
27642;SDS011;15053;48.618;10.024;2023-03-29T05:08:38;10.73;;;3.92;;
27642;SDS011;15053;48.618;10.024;2023-03-29T05:11:16;6.93;;;3.60;;
27642;SDS011;15053;48.618;10.024;2023-03-29T05:13:45;5.35;;;3.22;;
27642;SDS011;15053;48.618;10.024;2023-03-29T05:16:12;4.53;;;3.22;;
27642;SDS011;15053;48.618;10.024;2023-03-29T05:18:39;5.22;;;3.47;;
27642;SDS011;15053;48.618;10.024;2023-03-29T05:21:05;8.30;;;3.58;;
27642;SDS011;15053;48.618;10.024;2023-03-29T05:23:34;7.93;;;3.70;;
27642;SDS011;15053;48.618;10.024;2023-03-29T05:26:21;6.47;;;3.28;;
27642;SDS011;15053;48.618;10.024;2023-03-29T05:28:51;7.68;;;3.50;;
27642;SDS011;15053;48.618;10.024;2023-03-29T05:31:18;5.80;;;3.10;;
27642;SDS011;15053;48.618;10.024;2023-03-29T05:33:49;6.07;;;2.95;;
27642;SDS011;15053;48.618;10.024;2023-03-29T05:36:16;4.28;;;3.20;;
27642;SDS011;15053;48.618;10.024;2023-03-29T05:38:48;4.93;;;3.80;;
27642;SDS011;15053;48.618;10.024;2023-03-29T05:41:15;8.20;;;4.28;;
27642;SDS011;15053;48.618;10.024;2023-03-29T05:44:11;12.80;;;5.35;;
27642;SDS011;15053;48.618;10.024;2023-03-29T05:46:40;6.32;;;3.47;;
27642;SDS011;15053;48.618;10.024;2023-03-29T05:49:11;3.47;;;2.65;;
27642;SDS011;15053;48.618;10.024;2023-03-29T05:51:50;10.45;;;3.03;;
27642;SDS011;15053;48.618;10.024;2023-03-29T05:54:17;5.65;;;3.25;;
27642;SDS011;15053;48.618;10.024;2023-03-29T05:56:43;6.03;;;3.25;;
27642;SDS011;15053;48.618;10.024;2023-03-29T05:59:10;4.25;;;2.60;;
27642;SDS011;15053;48.618;10.024;2023-03-29T06:01:37;6.68;;;3.42;;
27642;SDS011;15053;48.618;10.024;2023-03-29T06:06:42;5.57;;;3.05;;
27642;SDS011;15053;48.618;10.024;2023-03-29T06:09:09;6.55;;;3.35;;
27642;SDS011;15053;48.618;10.024;2023-03-29T06:11:49;4.60;;;2.75;;
27642;SDS011;15053;48.618;10.024;2023-03-29T06:14:36;4.68;;;2.75;;
27642;SDS011;15053;48.618;10.024;2023-03-29T06:17:18;4.28;;;2.60;;
27642;SDS011;15053;48.618;10.024;2023-03-29T06:19:45;7.15;;;2.80;;
27642;SDS011;15053;48.618;10.024;2023-03-29T06:22:12;3.60;;;2.67;;
27642;SDS011;15053;48.618;10.024;2023-03-29T06:24:40;2.97;;;2.30;;
27642;SDS011;15053;48.618;10.024;2023-03-29T06:27:14;3.83;;;3.38;;
27642;SDS011;15053;48.618;10.024;2023-03-29T06:29:41;3.97;;;2.60;;
27642;SDS011;15053;48.618;10.024;2023-03-29T06:32:07;4.10;;;3.10;;
27642;SDS011;15053;48.618;10.024;2023-03-29T06:34:45;3.72;;;2.72;;
27642;SDS011;15053;48.618;10.024;2023-03-29T06:37:34;3.60;;;2.42;;
27642;SDS011;15053;48.618;10.024;2023-03-29T06:40:11;5.65;;;3.05;;
27642;SDS011;15053;48.618;10.024;2023-03-29T06:45:36;4.90;;;2.33;;
27642;SDS011;15053;48.618;10.024;2023-03-29T06:48:11;4.57;;;2.78;;
27642;SDS011;15053;48.618;10.024;2023-03-29T06:50:38;3.72;;;2.58;;
27642;SDS011;15053;48.618;10.024;2023-03-29T06:53:08;5.72;;;3.10;;
27642;SDS011;15053;48.618;10.024;2023-03-29T06:55:34;5.45;;;2.65;;
27642;SDS011;15053;48.618;10.024;2023-03-29T06:58:21;3.60;;;2.28;;
27642;SDS011;15053;48.618;10.024;2023-03-29T07:00:47;7.03;;;4.70;;
27642;SDS011;15053;48.618;10.024;2023-03-29T07:03:25;5.68;;;2.90;;
27642;SDS011;15053;48.618;10.024;2023-03-29T07:05:58;5.78;;;2.55;;
27642;SDS011;15053;48.618;10.024;2023-03-29T07:08:30;5.43;;;3.20;;
27642;SDS011;15053;48.618;10.024;2023-03-29T07:11:02;4.53;;;3.25;;
27642;SDS011;15053;48.618;10.024;2023-03-29T07:13:52;5.90;;;2.60;;
27642;SDS011;15053;48.618;10.024;2023-03-29T07:16:19;5.00;;;2.53;;
27642;SDS011;15053;48.618;10.024;2023-03-29T07:19:06;6.15;;;2.83;;
27642;SDS011;15053;48.618;10.024;2023-03-29T07:21:50;4.38;;;2.88;;
27642;SDS011;15053;48.618;10.024;2023-03-29T07:24:17;4.85;;;2.70;;
27642;SDS011;15053;48.618;10.024;2023-03-29T07:26:45;3.72;;;2.50;;
27642;SDS011;15053;48.618;10.024;2023-03-29T07:29:28;6.38;;;3.50;;
27642;SDS011;15053;48.618;10.024;2023-03-29T07:31:55;3.53;;;2.80;;
27642;SDS011;15053;48.618;10.024;2023-03-29T07:34:48;4.97;;;2.08;;
27642;SDS011;15053;48.618;10.024;2023-03-29T07:37:26;4.50;;;2.78;;
27642;SDS011;15053;48.618;10.024;2023-03-29T07:39:55;4.45;;;2.28;;
27642;SDS011;15053;48.618;10.024;2023-03-29T07:42:30;5.75;;;2.58;;
27642;SDS011;15053;48.618;10.024;2023-03-29T07:44:57;4.82;;;2.22;;
27642;SDS011;15053;48.618;10.024;2023-03-29T07:47:28;4.78;;;2.25;;
27642;SDS011;15053;48.618;10.024;2023-03-29T07:49:56;3.08;;;2.17;;
27642;SDS011;15053;48.618;10.024;2023-03-29T07:52:24;6.10;;;2.60;;
27642;SDS011;15053;48.618;10.024;2023-03-29T07:54:53;2.92;;;2.10;;
27642;SDS011;15053;48.618;10.024;2023-03-29T07:57:39;4.55;;;2.33;;
27642;SDS011;15053;48.618;10.024;2023-03-29T08:00:06;3.95;;;2.10;;
27642;SDS011;15053;48.618;10.024;2023-03-29T08:02:59;4.35;;;1.98;;
27642;SDS011;15053;48.618;10.024;2023-03-29T08:05:27;4.05;;;2.13;;
27642;SDS011;15053;48.618;10.024;2023-03-29T08:08:12;3.47;;;1.92;;
27642;SDS011;15053;48.618;10.024;2023-03-29T08:10:49;3.83;;;2.17;;
27642;SDS011;15053;48.618;10.024;2023-03-29T08:13:25;5.72;;;2.10;;
27642;SDS011;15053;48.618;10.024;2023-03-29T08:16:11;3.63;;;2.20;;
27642;SDS011;15053;48.618;10.024;2023-03-29T08:18:45;5.07;;;1.80;;
27642;SDS011;15053;48.618;10.024;2023-03-29T08:21:11;2.22;;;1.67;;
27642;SDS011;15053;48.618;10.024;2023-03-29T08:23:44;2.78;;;1.95;;
27642;SDS011;15053;48.618;10.024;2023-03-29T08:26:18;2.80;;;1.85;;
27642;SDS011;15053;48.618;10.024;2023-03-29T08:28:46;4.55;;;2.10;;
27642;SDS011;15053;48.618;10.024;2023-03-29T08:31:15;5.68;;;1.90;;
27642;SDS011;15053;48.618;10.024;2023-03-29T08:33:43;3.70;;;1.90;;
27642;SDS011;15053;48.618;10.024;2023-03-29T08:36:35;2.17;;;1.90;;
27642;SDS011;15053;48.618;10.024;2023-03-29T08:39:09;4.85;;;2.00;;
27642;SDS011;15053;48.618;10.024;2023-03-29T08:41:40;6.03;;;2.22;;
27642;SDS011;15053;48.618;10.024;2023-03-29T08:44:18;4.53;;;2.40;;
27642;SDS011;15053;48.618;10.024;2023-03-29T08:47:16;8.63;;;2.88;;
27642;SDS011;15053;48.618;10.024;2023-03-29T08:49:50;2.95;;;2.40;;
27642;SDS011;15053;48.618;10.024;2023-03-29T08:52:31;2.78;;;1.90;;
27642;SDS011;15053;48.618;10.024;2023-03-29T08:55:19;5.60;;;3.47;;
27642;SDS011;15053;48.618;10.024;2023-03-29T08:58:15;4.47;;;2.75;;
27642;SDS011;15053;48.618;10.024;2023-03-29T09:00:47;3.80;;;2.00;;
27642;SDS011;15053;48.618;10.024;2023-03-29T09:03:46;3.00;;;2.20;;
27642;SDS011;15053;48.618;10.024;2023-03-29T09:06:28;3.13;;;2.35;;
27642;SDS011;15053;48.618;10.024;2023-03-29T09:09:11;8.00;;;2.70;;
27642;SDS011;15053;48.618;10.024;2023-03-29T09:14:53;5.25;;;2.33;;
27642;SDS011;15053;48.618;10.024;2023-03-29T09:20:21;2.95;;;2.25;;
27642;SDS011;15053;48.618;10.024;2023-03-29T09:32:20;3.28;;;2.25;;
27642;SDS011;15053;48.618;10.024;2023-03-29T09:35:00;2.83;;;2.05;;
27642;SDS011;15053;48.618;10.024;2023-03-29T09:37:37;5.57;;;2.03;;
27642;SDS011;15053;48.618;10.024;2023-03-29T09:40:14;4.95;;;2.33;;
27642;SDS011;15053;48.618;10.024;2023-03-29T09:42:57;3.42;;;2.42;;
27642;SDS011;15053;48.618;10.024;2023-03-29T09:45:27;5.53;;;2.70;;
27642;SDS011;15053;48.618;10.024;2023-03-29T09:50:29;3.33;;;2.22;;
27642;SDS011;15053;48.618;10.024;2023-03-29T09:53:03;3.15;;;2.35;;
27642;SDS011;15053;48.618;10.024;2023-03-29T09:55:34;2.50;;;1.92;;
27642;SDS011;15053;48.618;10.024;2023-03-29T09:58:11;4.53;;;2.05;;
27642;SDS011;15053;48.618;10.024;2023-03-29T10:00:43;5.10;;;2.00;;
27642;SDS011;15053;48.618;10.024;2023-03-29T10:03:22;5.95;;;2.22;;
27642;SDS011;15053;48.618;10.024;2023-03-29T10:05:58;3.95;;;2.10;;
27642;SDS011;15053;48.618;10.024;2023-03-29T10:08:28;3.95;;;1.98;;
27642;SDS011;15053;48.618;10.024;2023-03-29T10:11:06;3.55;;;2.35;;
27642;SDS011;15053;48.618;10.024;2023-03-29T10:13:42;7.65;;;3.00;;
27642;SDS011;15053;48.618;10.024;2023-03-29T10:16:16;3.53;;;2.35;;
27642;SDS011;15053;48.618;10.024;2023-03-29T10:18:46;3.95;;;2.40;;
27642;SDS011;15053;48.618;10.024;2023-03-29T10:21:15;4.20;;;2.20;;
27642;SDS011;15053;48.618;10.024;2023-03-29T10:23:46;4.60;;;2.70;;
27642;SDS011;15053;48.618;10.024;2023-03-29T10:26:32;5.53;;;2.55;;
27642;SDS011;15053;48.618;10.024;2023-03-29T10:29:01;3.03;;;2.15;;
27642;SDS011;15053;48.618;10.024;2023-03-29T10:31:29;4.80;;;2.42;;
27642;SDS011;15053;48.618;10.024;2023-03-29T10:34:02;2.40;;;1.90;;
27642;SDS011;15053;48.618;10.024;2023-03-29T10:36:31;3.63;;;2.25;;
27642;SDS011;15053;48.618;10.024;2023-03-29T10:38:58;6.28;;;2.28;;
27642;SDS011;15053;48.618;10.024;2023-03-29T10:41:31;2.80;;;1.80;;
27642;SDS011;15053;48.618;10.024;2023-03-29T10:44:00;4.97;;;1.95;;
27642;SDS011;15053;48.618;10.024;2023-03-29T10:46:40;4.80;;;2.33;;
27642;SDS011;15053;48.618;10.024;2023-03-29T10:49:17;2.65;;;1.70;;
27642;SDS011;15053;48.618;10.024;2023-03-29T10:51:45;3.55;;;1.70;;
27642;SDS011;15053;48.618;10.024;2023-03-29T10:54:18;3.55;;;1.60;;
27642;SDS011;15053;48.618;10.024;2023-03-29T10:56:57;2.80;;;1.60;;
27642;SDS011;15053;48.618;10.024;2023-03-29T11:04:48;3.40;;;2.05;;
27642;SDS011;15053;48.618;10.024;2023-03-29T11:07:29;4.80;;;1.88;;
27642;SDS011;15053;48.618;10.024;2023-03-29T11:12:38;4.10;;;1.92;;
27642;SDS011;15053;48.618;10.024;2023-03-29T11:15:25;3.53;;;1.45;;
27642;SDS011;15053;48.618;10.024;2023-03-29T11:23:48;2.08;;;1.40;;
27642;SDS011;15053;48.618;10.024;2023-03-29T11:27:02;2.80;;;1.35;;
27642;SDS011;15053;48.618;10.024;2023-03-29T11:29:30;6.00;;;1.70;;
27642;SDS011;15053;48.618;10.024;2023-03-29T11:37:36;4.22;;;1.77;;
27642;SDS011;15053;48.618;10.024;2023-03-29T11:40:31;2.17;;;1.30;;
27642;SDS011;15053;48.618;10.024;2023-03-29T11:43:23;3.03;;;1.48;;
27642;SDS011;15053;48.618;10.024;2023-03-29T11:48:49;4.05;;;1.70;;
27642;SDS011;15053;48.618;10.024;2023-03-29T11:51:31;4.05;;;1.52;;
27642;SDS011;15053;48.618;10.024;2023-03-29T11:54:16;4.88;;;2.33;;
27642;SDS011;15053;48.618;10.024;2023-03-29T11:56:51;3.13;;;1.90;;
27642;SDS011;15053;48.618;10.024;2023-03-29T11:59:42;4.18;;;1.92;;
27642;SDS011;15053;48.618;10.024;2023-03-29T12:02:35;3.50;;;2.17;;
27642;SDS011;15053;48.618;10.024;2023-03-29T12:05:17;3.83;;;1.95;;
27642;SDS011;15053;48.618;10.024;2023-03-29T12:07:49;3.28;;;2.15;;
27642;SDS011;15053;48.618;10.024;2023-03-29T12:12:59;4.10;;;1.95;;
27642;SDS011;15053;48.618;10.024;2023-03-29T12:15:35;5.00;;;2.40;;
27642;SDS011;15053;48.618;10.024;2023-03-29T12:18:17;3.95;;;2.30;;
27642;SDS011;15053;48.618;10.024;2023-03-29T12:20:56;5.32;;;2.13;;
27642;SDS011;15053;48.618;10.024;2023-03-29T12:23:27;2.85;;;2.33;;
27642;SDS011;15053;48.618;10.024;2023-03-29T12:26:04;2.28;;;1.98;;
27642;SDS011;15053;48.618;10.024;2023-03-29T12:31:36;5.93;;;2.30;;
27642;SDS011;15053;48.618;10.024;2023-03-29T12:34:29;4.72;;;2.50;;
27642;SDS011;15053;48.618;10.024;2023-03-29T12:37:39;8.48;;;1.85;;
27642;SDS011;15053;48.618;10.024;2023-03-29T12:40:55;3.28;;;2.60;;
27642;SDS011;15053;48.618;10.024;2023-03-29T12:43:43;5.53;;;2.55;;
27642;SDS011;15053;48.618;10.024;2023-03-29T12:46:40;4.40;;;2.50;;
27642;SDS011;15053;48.618;10.024;2023-03-29T12:49:10;4.40;;;2.40;;
27642;SDS011;15053;48.618;10.024;2023-03-29T12:51:52;3.53;;;2.75;;
27642;SDS011;15053;48.618;10.024;2023-03-29T12:54:23;4.30;;;2.97;;
27642;SDS011;15053;48.618;10.024;2023-03-29T12:56:55;5.75;;;2.53;;
27642;SDS011;15053;48.618;10.024;2023-03-29T13:07:13;4.45;;;2.72;;
27642;SDS011;15053;48.618;10.024;2023-03-29T13:09:51;8.27;;;4.10;;
27642;SDS011;15053;48.618;10.024;2023-03-29T13:12:20;6.50;;;3.35;;
27642;SDS011;15053;48.618;10.024;2023-03-29T13:14:51;4.90;;;2.95;;
27642;SDS011;15053;48.618;10.024;2023-03-29T13:17:24;11.00;;;5.82;;
27642;SDS011;15053;48.618;10.024;2023-03-29T13:20:06;7.95;;;4.13;;
27642;SDS011;15053;48.618;10.024;2023-03-29T13:22:57;6.50;;;2.80;;
27642;SDS011;15053;48.618;10.024;2023-03-29T13:25:46;9.98;;;4.35;;
27642;SDS011;15053;48.618;10.024;2023-03-29T13:30:58;5.13;;;2.83;;
27642;SDS011;15053;48.618;10.024;2023-03-29T13:33:51;7.30;;;2.97;;
27642;SDS011;15053;48.618;10.024;2023-03-29T13:39:50;13.10;;;6.10;;
27642;SDS011;15053;48.618;10.024;2023-03-29T13:45:22;8.88;;;2.88;;
27642;SDS011;15053;48.618;10.024;2023-03-29T13:48:00;10.32;;;4.88;;
27642;SDS011;15053;48.618;10.024;2023-03-29T13:50:51;7.68;;;4.35;;
27642;SDS011;15053;48.618;10.024;2023-03-29T13:53:34;16.20;;;8.98;;
27642;SDS011;15053;48.618;10.024;2023-03-29T13:56:06;9.52;;;6.05;;
27642;SDS011;15053;48.618;10.024;2023-03-29T13:58:41;16.80;;;7.80;;
27642;SDS011;15053;48.618;10.024;2023-03-29T14:03:44;3.95;;;2.13;;
27642;SDS011;15053;48.618;10.024;2023-03-29T14:06:14;2.80;;;1.30;;
27642;SDS011;15053;48.618;10.024;2023-03-29T14:08:46;4.45;;;1.77;;
27642;SDS011;15053;48.618;10.024;2023-03-29T14:11:24;2.78;;;1.60;;
27642;SDS011;15053;48.618;10.024;2023-03-29T14:13:53;3.90;;;1.70;;
27642;SDS011;15053;48.618;10.024;2023-03-29T14:16:22;5.60;;;1.85;;
27642;SDS011;15053;48.618;10.024;2023-03-29T14:18:53;6.93;;;2.25;;
27642;SDS011;15053;48.618;10.024;2023-03-29T14:21:24;4.43;;;1.88;;
27642;SDS011;15053;48.618;10.024;2023-03-29T14:24:00;3.63;;;1.38;;
27642;SDS011;15053;48.618;10.024;2023-03-29T14:26:31;3.55;;;1.70;;
27642;SDS011;15053;48.618;10.024;2023-03-29T14:29:00;3.03;;;1.60;;
27642;SDS011;15053;48.618;10.024;2023-03-29T14:31:31;2.58;;;1.58;;
27642;SDS011;15053;48.618;10.024;2023-03-29T14:34:01;2.50;;;1.90;;
27642;SDS011;15053;48.618;10.024;2023-03-29T14:36:30;4.13;;;1.53;;
27642;SDS011;15053;48.618;10.024;2023-03-29T14:39:02;3.95;;;1.50;;
27642;SDS011;15053;48.618;10.024;2023-03-29T14:41:33;4.93;;;1.42;;
27642;SDS011;15053;48.618;10.024;2023-03-29T14:44:02;3.13;;;1.52;;
27642;SDS011;15053;48.618;10.024;2023-03-29T14:46:31;2.90;;;1.85;;
27642;SDS011;15053;48.618;10.024;2023-03-29T14:48:59;2.58;;;1.40;;
27642;SDS011;15053;48.618;10.024;2023-03-29T14:51:27;5.78;;;1.73;;
27642;SDS011;15053;48.618;10.024;2023-03-29T14:53:56;4.25;;;1.63;;
27642;SDS011;15053;48.618;10.024;2023-03-29T14:56:25;3.30;;;1.95;;
27642;SDS011;15053;48.618;10.024;2023-03-29T14:58:53;5.88;;;1.70;;
27642;SDS011;15053;48.618;10.024;2023-03-29T15:01:21;4.05;;;1.40;;
27642;SDS011;15053;48.618;10.024;2023-03-29T15:06:22;3.33;;;1.23;;
27642;SDS011;15053;48.618;10.024;2023-03-29T15:08:50;2.83;;;1.70;;
27642;SDS011;15053;48.618;10.024;2023-03-29T15:11:30;4.90;;;1.52;;
27642;SDS011;15053;48.618;10.024;2023-03-29T15:14:02;5.82;;;1.73;;
27642;SDS011;15053;48.618;10.024;2023-03-29T15:16:31;3.13;;;2.17;;
27642;SDS011;15053;48.618;10.024;2023-03-29T15:18:59;7.22;;;2.55;;
27642;SDS011;15053;48.618;10.024;2023-03-29T15:21:31;2.05;;;1.58;;
27642;SDS011;15053;48.618;10.024;2023-03-29T15:24:00;5.32;;;2.28;;
27642;SDS011;15053;48.618;10.024;2023-03-29T15:26:30;3.33;;;1.67;;
27642;SDS011;15053;48.618;10.024;2023-03-29T15:29:04;4.22;;;2.10;;
27642;SDS011;15053;48.618;10.024;2023-03-29T15:31:39;9.43;;;2.30;;
27642;SDS011;15053;48.618;10.024;2023-03-29T15:34:11;5.50;;;1.73;;
27642;SDS011;15053;48.618;10.024;2023-03-29T15:36:50;5.57;;;2.88;;
27642;SDS011;15053;48.618;10.024;2023-03-29T15:39:17;5.13;;;1.80;;
27642;SDS011;15053;48.618;10.024;2023-03-29T15:41:45;2.78;;;1.52;;
27642;SDS011;15053;48.618;10.024;2023-03-29T15:44:15;3.42;;;1.42;;
27642;SDS011;15053;48.618;10.024;2023-03-29T15:46:42;4.47;;;1.98;;
27642;SDS011;15053;48.618;10.024;2023-03-29T15:49:10;4.43;;;2.17;;
27642;SDS011;15053;48.618;10.024;2023-03-29T15:51:37;5.28;;;1.67;;
27642;SDS011;15053;48.618;10.024;2023-03-29T15:54:04;8.32;;;1.77;;
27642;SDS011;15053;48.618;10.024;2023-03-29T15:56:31;4.13;;;2.20;;
27642;SDS011;15053;48.618;10.024;2023-03-29T15:59:02;4.55;;;1.83;;
27642;SDS011;15053;48.618;10.024;2023-03-29T16:01:33;4.70;;;2.08;;
27642;SDS011;15053;48.618;10.024;2023-03-29T16:04:03;6.55;;;2.72;;
27642;SDS011;15053;48.618;10.024;2023-03-29T16:06:39;6.80;;;3.00;;
27642;SDS011;15053;48.618;10.024;2023-03-29T16:09:06;10.55;;;4.30;;
27642;SDS011;15053;48.618;10.024;2023-03-29T16:11:33;4.18;;;3.08;;
27642;SDS011;15053;48.618;10.024;2023-03-29T16:14:01;3.13;;;2.00;;
27642;SDS011;15053;48.618;10.024;2023-03-29T16:16:28;6.10;;;2.30;;
27642;SDS011;15053;48.618;10.024;2023-03-29T16:18:54;6.93;;;2.20;;
27642;SDS011;15053;48.618;10.024;2023-03-29T16:21:21;6.13;;;2.65;;
27642;SDS011;15053;48.618;10.024;2023-03-29T16:23:48;3.88;;;2.20;;
27642;SDS011;15053;48.618;10.024;2023-03-29T16:26:15;5.03;;;2.28;;
27642;SDS011;15053;48.618;10.024;2023-03-29T16:28:42;6.32;;;2.40;;
27642;SDS011;15053;48.618;10.024;2023-03-29T16:31:09;7.20;;;2.63;;
27642;SDS011;15053;48.618;10.024;2023-03-29T16:33:37;5.40;;;2.83;;
27642;SDS011;15053;48.618;10.024;2023-03-29T16:36:04;5.35;;;3.10;;
27642;SDS011;15053;48.618;10.024;2023-03-29T16:38:31;8.75;;;3.25;;
27642;SDS011;15053;48.618;10.024;2023-03-29T16:40:59;5.07;;;2.28;;
27642;SDS011;15053;48.618;10.024;2023-03-29T16:43:25;2.63;;;2.00;;
27642;SDS011;15053;48.618;10.024;2023-03-29T16:45:52;4.80;;;1.77;;
27642;SDS011;15053;48.618;10.024;2023-03-29T16:48:19;4.95;;;2.13;;
27642;SDS011;15053;48.618;10.024;2023-03-29T16:50:46;7.95;;;2.53;;